Terminal Aerodrome Forecast
Issued by NWS Boston, MA

Home | Current Version | Previous Version | Text Only | Print | Product List | Glossary On
Versions: 1 2 3 4 5 6 7 8 9 10 11 12 13 14 15 16 17 18 19 20 21 22 23 24 25 26 27 28 29
000
FTUS41 KBOX 291120
TAFBOS
TAF
KBOS 291120Z 2912/3018 24005KT P6SM BKN130
     FM292100 21012G23KT P6SM BKN200
     FM300100 21011G22KT P6SM VCSH BKN100
     FM301000 22010G19KT P6SM BKN100
     FM301600 23010G17KT P6SM BKN120=

USA.gov is the U.S. government's official web portal to all federal, state and local government web resources and services.